Time;durP1;ratioP1;P1;durP2;ratioP2;P2;SDS_P1;SDS_P2;PMS_P1;PMS_P2;Temp;Humidity;BMP_temperature;BMP_pressure;BME280_temperature;BME280_humidity;BME280_pressure;Samples;Min_cycle;Max_cycle;Signal;HPM_P1;HPM_P2
2023/04/23 00:01:16;;;;;;;;;0.75;0.00;;;;;;;;5017701;28;45349;-80
2023/04/23 00:03:42;;;;;;;;;1.75;0.00;;;;;;;;5018220;28;45468;-80
2023/04/23 00:06:09;;;;;;;;;0.00;0.00;;;;;;;;5018146;28;45423;-80
2023/04/23 00:08:34;;;;;;;;;0.00;0.00;;;;;;;;5018341;28;45368;-80
2023/04/23 00:11:00;;;;;;;;;0.00;0.00;;;;;;;;5016839;28;45458;-80
2023/04/23 00:13:26;;;;;;;;;0.00;0.00;;;;;;;;5018008;28;46368;-80
2023/04/23 00:15:51;;;;;;;;;0.00;0.00;;;;;;;;5017571;28;45313;-81
2023/04/23 00:18:16;;;;;;;;;0.75;0.00;;;;;;;;5017880;28;45500;-80
2023/04/23 00:20:42;;;;;;;;;0.00;0.00;;;;;;;;5018160;28;45256;-80
2023/04/23 00:23:07;;;;;;;;;1.50;0.00;;;;;;;;5017789;28;46205;-80
2023/04/23 00:25:32;;;;;;;;;0.00;0.00;;;;;;;;5017780;28;45383;-81
2023/04/23 00:27:57;;;;;;;;;3.00;0.00;;;;;;;;5018011;28;45447;-80
2023/04/23 00:30:22;;;;;;;;;0.00;0.00;;;;;;;;5017447;28;45325;-80
2023/04/23 00:32:48;;;;;;;;;0.00;0.00;;;;;;;;5017727;28;47261;-80
2023/04/23 00:35:13;;;;;;;;;0.00;0.00;;;;;;;;5017851;28;45281;-81
2023/04/23 00:37:38;;;;;;;;;0.00;0.00;;;;;;;;5017655;28;45368;-80
2023/04/23 00:40:04;;;;;;;;;1.00;0.00;;;;;;;;5017598;28;45431;-81
2023/04/23 00:42:29;;;;;;;;;0.00;0.00;;;;;;;;5017501;28;46413;-80
2023/04/23 00:44:55;;;;;;;;;1.00;0.00;;;;;;;;5017282;28;45318;-81
2023/04/23 00:47:21;;;;;;;;;0.00;0.00;;;;;;;;5016260;28;45325;-80
2023/04/23 00:49:47;;;;;;;;;1.00;1.00;;;;;;;;5011295;28;45506;-80
2023/04/23 00:52:12;;;;;;;;;0.25;0.00;;;;;;;;4997519;28;45587;-80
2023/04/23 00:54:37;;;;;;;;;0.00;0.00;;;;;;;;4997519;28;45327;-80
2023/04/23 00:57:03;;;;;;;;;0.00;0.00;;;;;;;;4997514;28;45479;-80
2023/04/23 00:59:29;;;;;;;;;1.00;0.00;;;;;;;;4997053;28;45443;-80
2023/04/23 01:01:55;;;;;;;;;2.50;0.00;;;;;;;;4997542;28;45490;-80
2023/04/23 01:04:21;;;;;;;;;1.00;1.00;;;;;;;;4997330;28;45299;-80
2023/04/23 01:06:47;;;;;;;;;0.00;0.00;;;;;;;;4997362;28;45396;-80
2023/04/23 01:09:12;;;;;;;;;1.00;0.00;;;;;;;;4997411;28;45548;-80
2023/04/23 01:11:38;;;;;;;;;0.00;0.00;;;;;;;;5002462;28;45509;-80
2023/04/23 01:14:03;;;;;;;;;0.00;0.00;;;;;;;;5015621;28;45304;-80
2023/04/23 01:16:28;;;;;;;;;0.00;0.00;;;;;;;;5017221;28;45381;-79
2023/04/23 01:18:55;;;;;;;;;1.00;0.00;;;;;;;;5017126;28;45272;-80
2023/04/23 01:21:20;;;;;;;;;0.00;0.00;;;;;;;;5016934;28;45326;-80
2023/04/23 01:23:46;;;;;;;;;0.33;0.33;;;;;;;;5016876;28;45383;-80
2023/04/23 01:26:11;;;;;;;;;0.00;0.00;;;;;;;;5016898;28;45317;-80
2023/04/23 01:28:36;;;;;;;;;0.00;0.00;;;;;;;;5016523;28;45634;-80
2023/04/23 01:31:02;;;;;;;;;1.50;0.00;;;;;;;;5016613;28;45375;-80
2023/04/23 01:33:28;;;;;;;;;0.00;0.00;;;;;;;;5015398;28;45335;-80
2023/04/23 01:35:54;;;;;;;;;1.00;0.00;;;;;;;;5016853;28;45403;-79
2023/04/23 01:38:21;;;;;;;;;0.00;0.00;;;;;;;;5015448;28;45849;-80
2023/04/23 01:40:46;;;;;;;;;0.00;0.00;;;;;;;;5016538;28;45404;-79
2023/04/23 01:43:11;;;;;;;;;0.00;0.00;;;;;;;;5016489;28;45339;-80
2023/04/23 01:45:37;;;;;;;;;0.00;0.00;;;;;;;;5016425;28;45438;-80
2023/04/23 01:48:02;;;;;;;;;1.00;0.00;;;;;;;;5016529;28;45359;-80
2023/04/23 01:50:28;;;;;;;;;1.00;0.00;;;;;;;;5016268;28;47109;-78
2023/04/23 01:52:53;;;;;;;;;2.00;0.00;;;;;;;;5016347;28;45826;-79
2023/04/23 01:55:19;;;;;;;;;2.00;0.33;;;;;;;;5016643;28;45268;-80
2023/04/23 01:57:48;;;;;;;;;0.00;0.00;;;;;;;;5015941;28;45642;-80
2023/04/23 02:00:14;;;;;;;;;0.00;0.00;;;;;;;;5016355;28;45462;-80
2023/04/23 02:02:40;;;;;;;;;2.00;0.00;;;;;;;;5016446;28;45444;-80
2023/04/23 02:05:12;;;;;;;;;0.75;0.00;;;;;;;;5016461;28;45388;-80
2023/04/23 02:07:38;;;;;;;;;0.25;0.00;;;;;;;;5016362;28;45301;-80
2023/04/23 02:10:03;;;;;;;;;0.00;0.00;;;;;;;;5016177;28;45285;-80
2023/04/23 02:12:29;;;;;;;;;0.00;0.00;;;;;;;;5015718;28;45412;-80
2023/04/23 02:14:54;;;;;;;;;0.00;0.00;;;;;;;;5016284;28;45276;-80
2023/04/23 02:17:21;;;;;;;;;0.00;0.00;;;;;;;;5016198;28;45378;-80
2023/04/23 02:19:46;;;;;;;;;0.50;0.50;;;;;;;;5015961;28;46636;-80
2023/04/23 02:22:12;;;;;;;;;0.00;0.00;;;;;;;;5016038;28;45296;-80
2023/04/23 02:24:37;;;;;;;;;4.67;0.00;;;;;;;;5016018;28;45335;-80
2023/04/23 02:27:03;;;;;;;;;0.00;0.00;;;;;;;;5015599;28;45718;-80
2023/04/23 02:29:28;;;;;;;;;1.50;1.00;;;;;;;;5015814;28;45812;-79
2023/04/23 02:31:53;;;;;;;;;2.00;1.00;;;;;;;;5016043;28;45483;-79
2023/04/23 02:34:18;;;;;;;;;0.67;0.00;;;;;;;;5015985;28;45374;-80
2023/04/23 02:36:44;;;;;;;;;1.33;0.00;;;;;;;;5015619;28;45574;-79
2023/04/23 02:39:09;;;;;;;;;1.00;1.00;;;;;;;;5015662;28;45402;-80
2023/04/23 02:41:35;;;;;;;;;0.00;0.00;;;;;;;;5015436;28;45706;-80
2023/04/23 02:44:00;;;;;;;;;1.00;0.00;;;;;;;;5016052;28;45454;-80
2023/04/23 02:46:25;;;;;;;;;1.33;0.00;;;;;;;;5014287;28;45495;-80
2023/04/23 02:48:50;;;;;;;;;0.00;0.00;;;;;;;;5015564;28;45367;-79
2023/04/23 02:51:16;;;;;;;;;4.67;0.33;;;;;;;;5015843;28;45487;-80
2023/04/23 02:53:41;;;;;;;;;2.00;0.00;;;;;;;;5015716;28;46005;-79
2023/04/23 02:56:06;;;;;;;;;0.00;0.00;;;;;;;;5015303;28;45334;-80
2023/04/23 02:58:32;;;;;;;;;1.00;1.00;;;;;;;;5014069;28;46677;-80
2023/04/23 03:00:57;;;;;;;;;0.50;0.00;;;;;;;;5015505;28;45391;-79
2023/04/23 03:03:25;;;;;;;;;0.00;0.00;;;;;;;;5015649;28;45423;-80
2023/04/23 03:05:50;;;;;;;;;0.00;0.00;;;;;;;;5015518;28;45395;-80
2023/04/23 03:08:15;;;;;;;;;1.00;0.00;;;;;;;;5015300;28;45481;-79
2023/04/23 03:10:40;;;;;;;;;0.00;0.00;;;;;;;;5015189;28;45286;-80
2023/04/23 03:13:06;;;;;;;;;0.00;0.00;;;;;;;;5015390;28;45198;-79
2023/04/23 03:15:31;;;;;;;;;0.00;0.00;;;;;;;;5015454;28;45360;-80
2023/04/23 03:17:56;;;;;;;;;0.00;0.00;;;;;;;;5015128;28;46556;-80
2023/04/23 03:20:21;;;;;;;;;0.67;0.00;;;;;;;;5015297;28;45313;-80
2023/04/23 03:22:46;;;;;;;;;2.33;0.00;;;;;;;;5015449;28;45422;-79
2023/04/23 03:25:11;;;;;;;;;2.00;0.00;;;;;;;;5015272;28;45332;-80
2023/04/23 03:27:40;;;;;;;;;0.33;0.00;;;;;;;;5015112;28;45406;-80
2023/04/23 03:30:07;;;;;;;;;0.00;0.00;;;;;;;;5015108;28;45318;-80
2023/04/23 03:32:32;;;;;;;;;0.00;0.00;;;;;;;;5014073;28;45555;-79
2023/04/23 03:34:58;;;;;;;;;1.00;0.00;;;;;;;;5015210;28;45209;-80
2023/04/23 03:37:23;;;;;;;;;0.00;0.00;;;;;;;;5016875;28;46303;-80
2023/04/23 03:39:48;;;;;;;;;0.00;0.00;;;;;;;;5018135;28;45397;-80
2023/04/23 03:42:13;;;;;;;;;0.67;0.00;;;;;;;;5018473;28;45332;-79
2023/04/23 03:44:38;;;;;;;;;0.00;0.00;;;;;;;;5018800;28;45590;-80
2023/04/23 03:47:04;;;;;;;;;0.00;0.00;;;;;;;;5018204;28;45470;-80
2023/04/23 03:49:29;;;;;;;;;2.33;0.67;;;;;;;;5018467;28;45218;-79
2023/04/23 03:51:54;;;;;;;;;1.00;0.67;;;;;;;;5018662;28;45221;-80
2023/04/23 03:54:19;;;;;;;;;1.00;0.00;;;;;;;;5018140;28;45530;-80
2023/04/23 03:56:44;;;;;;;;;1.00;0.00;;;;;;;;5018344;28;45389;-80
2023/04/23 03:59:10;;;;;;;;;0.00;0.00;;;;;;;;5018206;28;45226;-80
2023/04/23 04:01:35;;;;;;;;;0.00;0.00;;;;;;;;5018244;28;45494;-80
2023/04/23 04:04:01;;;;;;;;;1.00;1.00;;;;;;;;5018465;28;45436;-81
2023/04/23 04:06:26;;;;;;;;;0.00;0.00;;;;;;;;5017959;28;47295;-81
2023/04/23 04:08:51;;;;;;;;;0.75;0.00;;;;;;;;5017749;28;45291;-82
2023/04/23 04:11:16;;;;;;;;;2.00;0.00;;;;;;;;5018303;28;45499;-81
2023/04/23 04:13:41;;;;;;;;;1.33;0.00;;;;;;;;5018228;28;45426;-80
2023/04/23 04:16:07;;;;;;;;;1.00;0.00;;;;;;;;5018135;28;45450;-80
2023/04/23 04:18:32;;;;;;;;;0.00;0.00;;;;;;;;5017934;28;45429;-81
2023/04/23 04:20:57;;;;;;;;;1.00;0.67;;;;;;;;5018252;28;45481;-80
2023/04/23 04:23:22;;;;;;;;;2.00;0.33;;;;;;;;5017762;28;45273;-79
2023/04/23 04:25:49;;;;;;;;;0.00;0.00;;;;;;;;5017912;28;45379;-80
2023/04/23 04:28:15;;;;;;;;;0.00;0.00;;;;;;;;5017946;28;45381;-80
2023/04/23 04:30:41;;;;;;;;;0.00;0.00;;;;;;;;5018057;28;45288;-80
2023/04/23 04:33:07;;;;;;;;;0.00;0.00;;;;;;;;5017786;28;45427;-80
2023/04/23 04:35:33;;;;;;;;;0.50;0.25;;;;;;;;5017603;28;45556;-80
2023/04/23 04:37:58;;;;;;;;;0.00;0.00;;;;;;;;5017312;28;45306;-80
2023/04/23 04:40:25;;;;;;;;;0.25;0.25;;;;;;;;5017870;28;45392;-80
2023/04/23 04:42:51;;;;;;;;;0.00;0.00;;;;;;;;5017743;28;45366;-80
2023/04/23 04:45:17;;;;;;;;;3.00;0.00;;;;;;;;5017126;28;46482;-80
2023/04/23 04:47:42;;;;;;;;;0.00;0.00;;;;;;;;5016749;28;45463;-80
2023/04/23 04:50:07;;;;;;;;;2.00;0.00;;;;;;;;5017376;28;45531;-79
2023/04/23 04:52:32;;;;;;;;;0.25;0.25;;;;;;;;5017394;28;45351;-80
2023/04/23 04:54:58;;;;;;;;;0.67;0.67;;;;;;;;5017203;28;45547;-80
2023/04/23 04:57:23;;;;;;;;;1.00;1.00;;;;;;;;5017323;28;45264;-80
2023/04/23 04:59:48;;;;;;;;;2.67;0.00;;;;;;;;5017425;28;45409;-81
2023/04/23 05:02:14;;;;;;;;;2.00;0.00;;;;;;;;5016075;28;45383;-80
2023/04/23 05:04:39;;;;;;;;;1.00;0.67;;;;;;;;5017275;28;45426;-80
2023/04/23 05:07:04;;;;;;;;;1.00;1.00;;;;;;;;5016660;28;45395;-80
2023/04/23 05:09:29;;;;;;;;;1.25;0.25;;;;;;;;5017241;28;45251;-80
2023/04/23 05:11:55;;;;;;;;;4.00;1.00;;;;;;;;5017036;28;45601;-80
2023/04/23 05:14:20;;;;;;;;;0.00;0.00;;;;;;;;5016926;28;46430;-80
2023/04/23 05:16:46;;;;;;;;;1.00;1.00;;;;;;;;5016914;28;45405;-80
2023/04/23 05:19:11;;;;;;;;;2.00;1.00;;;;;;;;5016988;28;45420;-81
2023/04/23 05:21:36;;;;;;;;;1.33;0.67;;;;;;;;5016403;28;45500;-80
2023/04/23 05:24:01;;;;;;;;;0.67;0.00;;;;;;;;5016696;28;47368;-80
2023/04/23 05:26:26;;;;;;;;;2.00;0.00;;;;;;;;5016653;28;45449;-80
2023/04/23 05:28:52;;;;;;;;;0.00;0.00;;;;;;;;5016967;28;45478;-80
2023/04/23 05:31:17;;;;;;;;;0.67;0.00;;;;;;;;5016824;28;45326;-80
2023/04/23 05:33:46;;;;;;;;;6.33;1.00;;;;;;;;5016563;28;46267;-80
2023/04/23 05:36:11;;;;;;;;;1.00;0.50;;;;;;;;5016293;28;45426;-80
2023/04/23 05:38:37;;;;;;;;;1.00;0.00;;;;;;;;5016706;28;45288;-80
2023/04/23 05:41:02;;;;;;;;;0.50;0.50;;;;;;;;5016784;28;45351;-80
2023/04/23 05:43:27;;;;;;;;;0.33;0.33;;;;;;;;5016490;28;45446;-80
2023/04/23 05:45:52;;;;;;;;;5.67;2.00;;;;;;;;5016370;28;45409;-80
2023/04/23 05:48:18;;;;;;;;;0.00;0.00;;;;;;;;5016686;28;45489;-80
2023/04/23 05:50:43;;;;;;;;;2.00;0.00;;;;;;;;5016505;28;45324;-80
2023/04/23 05:53:08;;;;;;;;;5.50;1.50;;;;;;;;5016466;28;46135;-80
2023/04/23 05:55:33;;;;;;;;;0.67;0.00;;;;;;;;5016562;28;45911;-81
2023/04/23 05:57:58;;;;;;;;;1.00;1.00;;;;;;;;5016513;28;45343;-80
2023/04/23 06:00:24;;;;;;;;;0.00;0.00;;;;;;;;5015965;28;45626;-80
2023/04/23 06:02:49;;;;;;;;;0.33;0.00;;;;;;;;5016439;28;45664;-80
2023/04/23 06:05:14;;;;;;;;;6.00;0.00;;;;;;;;5015949;28;45431;-80
2023/04/23 06:07:40;;;;;;;;;2.50;1.00;;;;;;;;5016181;28;45485;-79
2023/04/23 06:10:06;;;;;;;;;2.00;0.50;;;;;;;;5016371;28;45493;-80
2023/04/23 06:12:31;;;;;;;;;0.25;0.00;;;;;;;;5015980;28;46929;-80
2023/04/23 06:14:56;;;;;;;;;0.00;0.00;;;;;;;;5016191;28;45399;-79
2023/04/23 06:17:21;;;;;;;;;2.00;0.00;;;;;;;;5016117;28;45497;-80
2023/04/23 06:19:47;;;;;;;;;0.00;0.00;;;;;;;;5014695;28;45449;-80
2023/04/23 06:22:12;;;;;;;;;0.00;0.00;;;;;;;;5015984;28;46624;-80
2023/04/23 06:24:37;;;;;;;;;1.00;0.00;;;;;;;;5016187;28;45310;-80
2023/04/23 06:27:02;;;;;;;;;1.00;0.00;;;;;;;;5016079;28;45398;-80
2023/04/23 06:29:28;;;;;;;;;1.50;0.00;;;;;;;;5016036;28;45352;-80
2023/04/23 06:32:00;;;;;;;;;0.00;0.00;;;;;;;;5015594;28;45383;-79
2023/04/23 06:34:25;;;;;;;;;0.00;0.00;;;;;;;;5015768;28;45677;-80
2023/04/23 06:36:50;;;;;;;;;1.00;0.00;;;;;;;;5016055;28;45377;-80
2023/04/23 06:39:16;;;;;;;;;0.00;0.00;;;;;;;;5015769;28;45426;-79
2023/04/23 06:41:41;;;;;;;;;1.00;0.00;;;;;;;;5015650;28;46584;-80
2023/04/23 06:44:06;;;;;;;;;0.67;0.00;;;;;;;;5015775;28;45400;-80
2023/04/23 06:46:31;;;;;;;;;2.00;0.67;;;;;;;;5015299;28;45664;-79
2023/04/23 06:48:56;;;;;;;;;2.00;0.67;;;;;;;;5015773;28;45412;-80
2023/04/23 06:51:24;;;;;;;;;0.00;0.00;;;;;;;;5015646;28;45405;-80
2023/04/23 06:53:49;;;;;;;;;1.00;0.00;;;;;;;;5015516;28;45435;-80
2023/04/23 06:56:14;;;;;;;;;2.33;0.00;;;;;;;;5014507;28;45362;-80
2023/04/23 06:58:40;;;;;;;;;1.00;1.00;;;;;;;;5015747;28;45317;-80
2023/04/23 07:01:06;;;;;;;;;0.75;0.75;;;;;;;;5015246;28;46146;-80
2023/04/23 07:03:31;;;;;;;;;0.00;0.00;;;;;;;;5015666;28;45178;-79
2023/04/23 07:05:57;;;;;;;;;0.00;0.00;;;;;;;;5016199;28;45739;-79
2023/04/23 07:08:22;;;;;;;;;3.00;1.00;;;;;;;;5015499;28;45287;-79
2023/04/23 07:10:47;;;;;;;;;2.00;1.00;;;;;;;;5015452;28;46483;-80
2023/04/23 07:13:12;;;;;;;;;0.25;0.00;;;;;;;;5018599;28;45394;-79
2023/04/23 07:15:38;;;;;;;;;8.00;1.00;;;;;;;;5018978;28;45270;-79
2023/04/23 07:18:03;;;;;;;;;3.00;1.00;;;;;;;;5018962;28;45426;-78
2023/04/23 07:20:29;;;;;;;;;3.00;1.00;;;;;;;;5018515;28;45436;-79
2023/04/23 07:22:54;;;;;;;;;2.00;2.00;;;;;;;;5018809;28;45371;-78
2023/04/23 07:25:21;;;;;;;;;1.00;1.00;;;;;;;;5018847;28;45452;-79
2023/04/23 07:27:46;;;;;;;;;2.00;2.00;;;;;;;;5018725;28;45359;-79
2023/04/23 07:30:12;;;;;;;;;1.00;1.00;;;;;;;;5018496;28;45400;-79
2023/04/23 07:32:37;;;;;;;;;1.00;1.00;;;;;;;;5018727;28;45411;-79
2023/04/23 07:35:03;;;;;;;;;2.67;1.67;;;;;;;;5018976;28;45372;-79
2023/04/23 07:37:29;;;;;;;;;2.00;0.25;;;;;;;;5018546;28;45330;-79
2023/04/23 07:39:54;;;;;;;;;0.25;0.25;;;;;;;;5018603;28;46325;-79
2023/04/23 07:42:19;;;;;;;;;1.00;1.00;;;;;;;;5018601;28;45421;-79
2023/04/23 07:44:45;;;;;;;;;1.00;1.00;;;;;;;;5018291;28;45406;-79
2023/04/23 07:47:10;;;;;;;;;3.75;1.00;;;;;;;;5018678;28;45379;-79
2023/04/23 07:49:35;;;;;;;;;3.75;1.00;;;;;;;;5018312;28;46369;-79
2023/04/23 07:52:00;;;;;;;;;2.00;2.00;;;;;;;;5018380;28;45391;-79
2023/04/23 07:54:26;;;;;;;;;0.00;0.00;;;;;;;;5017322;28;45368;-82
2023/04/23 07:56:51;;;;;;;;;1.00;1.00;;;;;;;;5018623;28;45359;-86
2023/04/23 07:59:16;;;;;;;;;3.00;1.00;;;;;;;;5018318;28;46511;-87
2023/04/23 08:01:41;;;;;;;;;4.75;2.00;;;;;;;;5018910;28;45435;-86
2023/04/23 08:04:06;;;;;;;;;1.00;1.00;;;;;;;;5017151;28;45220;-84
2023/04/23 08:06:34;;;;;;;;;4.33;1.00;;;;;;;;5018413;28;45453;-84
2023/04/23 08:08:59;;;;;;;;;2.00;1.75;;;;;;;;5015639;28;46219;-83
2023/04/23 08:11:24;;;;;;;;;1.50;1.25;;;;;;;;5017143;28;45865;-86
2023/04/23 08:14:06;;;;;;;;;2.00;2.00;;;;;;;;5018835;28;45250;-91
2023/04/23 08:16:31;;;;;;;;;1.75;1.25;;;;;;;;5019293;28;45332;-90
2023/04/23 08:18:57;;;;;;;;;2.67;1.00;;;;;;;;5018964;28;48379;-89
2023/04/23 08:21:25;;;;;;;;;1.25;1.25;;;;;;;;5019170;28;45355;-87
2023/04/23 08:23:54;;;;;;;;;3.00;2.00;;;;;;;;5018993;28;45402;-87
2023/04/23 08:26:22;;;;;;;;;2.50;2.00;;;;;;;;5017230;28;45261;-87
2023/04/23 08:28:50;;;;;;;;;3.00;2.00;;;;;;;;5018367;28;46718;-88
2023/04/23 08:31:30;;;;;;;;;4.00;1.50;;;;;;;;5019175;28;45341;-88
2023/04/23 08:34:03;;;;;;;;;4.50;2.00;;;;;;;;5019541;28;45400;-91
2023/04/23 08:36:47;;;;;;;;;2.50;1.00;;;;;;;;4998579;28;45411;-91
2023/04/23 08:39:12;;;;;;;;;1.00;1.00;;;;;;;;5014872;28;48611;-89
2023/04/23 08:42:44;;;;;;;;;2.00;1.50;;;;;;;;4999609;28;45289;-94
2023/04/23 08:48:01;;;;;;;;;;;;;;;;;;;;;
2023/04/23 08:50:27;;;;;;;;;2.00;2.00;;;;;;;;4934929;28;76584;-84
2023/04/23 08:52:53;;;;;;;;;4.00;2.00;;;;;;;;4937795;28;45700;-88
2023/04/23 08:55:20;;;;;;;;;2.50;2.00;;;;;;;;4943694;28;45532;-87
2023/04/23 08:57:45;;;;;;;;;2.25;2.25;;;;;;;;4939809;28;45361;-87
2023/04/23 09:00:11;;;;;;;;;4.00;2.00;;;;;;;;4956773;28;45449;-87
2023/04/23 09:02:40;;;;;;;;;2.75;1.75;;;;;;;;4940492;28;45821;-87
2023/04/23 09:05:06;;;;;;;;;6.25;2.25;;;;;;;;4957258;28;45427;-86
2023/04/23 09:07:32;;;;;;;;;3.25;2.00;;;;;;;;4940700;28;45586;-87
2023/04/23 09:09:58;;;;;;;;;3.00;2.50;;;;;;;;4956755;28;45340;-87
2023/04/23 09:12:24;;;;;;;;;2.75;2.75;;;;;;;;4956408;28;45399;-87
2023/04/23 09:14:50;;;;;;;;;4.00;2.50;;;;;;;;4940608;28;45482;-87
2023/04/23 09:17:16;;;;;;;;;4.25;2.25;;;;;;;;4956796;28;45396;-87
2023/04/23 09:19:44;;;;;;;;;9.00;1.50;;;;;;;;4956672;28;45518;-87
2023/04/23 09:22:09;;;;;;;;;2.50;2.50;;;;;;;;4988458;28;45767;-87
2023/04/23 09:24:35;;;;;;;;;2.75;1.75;;;;;;;;4996823;28;45314;-87
2023/04/23 09:27:02;;;;;;;;;4.00;3.00;;;;;;;;4997564;28;45499;-87
2023/04/23 09:29:31;;;;;;;;;4.00;2.00;;;;;;;;4996633;28;48561;-87
2023/04/23 09:32:09;;;;;;;;;3.00;2.00;;;;;;;;4997783;28;45712;-87
2023/04/23 09:34:37;;;;;;;;;3.75;2.75;;;;;;;;4997350;28;45355;-87
2023/04/23 09:37:06;;;;;;;;;2.00;2.00;;;;;;;;4997854;28;45393;-89
2023/04/23 09:39:34;;;;;;;;;3.50;2.25;;;;;;;;4998316;28;45904;-88
2023/04/23 09:42:02;;;;;;;;;2.00;2.00;;;;;;;;4996419;28;45634;-86
2023/04/23 09:44:33;;;;;;;;;2.75;2.25;;;;;;;;4996362;28;45420;-87
2023/04/23 09:47:25;;;;;;;;;4.00;2.00;;;;;;;;4996129;28;45392;-88
2023/04/23 09:49:51;;;;;;;;;4.00;2.75;;;;;;;;4996372;28;45701;-87
2023/04/23 09:52:17;;;;;;;;;3.75;2.00;;;;;;;;4997072;28;45456;-86
2023/04/23 09:54:42;;;;;;;;;2.00;2.00;;;;;;;;4997228;28;45487;-86
2023/04/23 09:57:15;;;;;;;;;4.00;3.00;;;;;;;;4996553;28;45487;-87
2023/04/23 09:59:43;;;;;;;;;2.25;2.00;;;;;;;;4995924;28;48746;-87
2023/04/23 10:02:10;;;;;;;;;3.75;2.00;;;;;;;;4995821;28;45759;-86
2023/04/23 10:04:39;;;;;;;;;2.00;2.00;;;;;;;;4995721;28;45326;-86
2023/04/23 10:07:07;;;;;;;;;3.50;2.00;;;;;;;;4995686;28;45454;-86
2023/04/23 10:09:50;;;;;;;;;3.75;2.00;;;;;;;;4996615;28;45674;-86
2023/04/23 10:12:15;;;;;;;;;1.00;1.00;;;;;;;;5007443;28;45710;-86
2023/04/23 10:14:44;;;;;;;;;1.50;1.25;;;;;;;;5016808;28;45485;-86
2023/04/23 10:17:12;;;;;;;;;3.50;2.00;;;;;;;;5016672;28;45500;-86
2023/04/23 10:19:39;;;;;;;;;1.00;1.00;;;;;;;;5016488;28;45451;-85
2023/04/23 10:22:07;;;;;;;;;1.00;1.00;;;;;;;;5016313;28;45820;-85
2023/04/23 10:24:33;;;;;;;;;2.00;0.50;;;;;;;;5016167;28;45430;-85
2023/04/23 10:27:01;;;;;;;;;2.75;1.75;;;;;;;;5015258;28;45488;-85
2023/04/23 10:29:35;;;;;;;;;2.50;2.50;;;;;;;;5016228;28;46576;-85
2023/04/23 10:32:01;;;;;;;;;4.00;2.00;;;;;;;;5016079;28;45638;-85
2023/04/23 10:34:27;;;;;;;;;4.00;1.00;;;;;;;;5016417;28;45349;-84
2023/04/23 10:36:54;;;;;;;;;1.00;1.00;;;;;;;;5016278;28;45277;-86
2023/04/23 10:39:20;;;;;;;;;3.00;3.00;;;;;;;;5015515;28;45465;-86
2023/04/23 10:41:47;;;;;;;;;4.50;2.50;;;;;;;;5014875;28;46149;-86
2023/04/23 10:44:15;;;;;;;;;4.00;3.00;;;;;;;;5016185;28;45446;-84
2023/04/23 10:46:51;;;;;;;;;3.00;2.00;;;;;;;;5018537;28;45460;-86
2023/04/23 10:49:16;;;;;;;;;1.50;1.50;;;;;;;;5019743;28;46352;-85
2023/04/23 10:51:44;;;;;;;;;1.00;1.00;;;;;;;;5018407;28;45911;-86
2023/04/23 10:54:12;;;;;;;;;1.50;1.00;;;;;;;;5019427;28;45389;-87
2023/04/23 10:56:38;;;;;;;;;2.00;1.50;;;;;;;;5015571;28;45391;-85
2023/04/23 10:59:08;;;;;;;;;1.75;1.50;;;;;;;;5007306;28;46895;-84
2023/04/23 11:01:33;;;;;;;;;0.75;0.75;;;;;;;;4999703;28;45589;-84
2023/04/23 11:03:59;;;;;;;;;1.00;1.00;;;;;;;;5018137;28;45431;-87
2023/04/23 11:06:52;;;;;;;;;1.50;0.00;;;;;;;;5019785;28;45353;-85
2023/04/23 11:09:36;;;;;;;;;1.75;1.25;;;;;;;;5018025;28;48196;-85
2023/04/23 11:12:04;;;;;;;;;1.25;1.00;;;;;;;;5017495;28;45915;-83
2023/04/23 11:14:37;;;;;;;;;1.00;1.00;;;;;;;;5019276;28;45458;-85
2023/04/23 11:17:08;;;;;;;;;2.00;1.00;;;;;;;;5019061;28;45232;-82
2023/04/23 11:19:36;;;;;;;;;0.00;0.00;;;;;;;;5019120;28;46282;-85
2023/04/23 11:22:11;;;;;;;;;1.75;0.00;;;;;;;;5019169;28;45237;-86
2023/04/23 11:24:45;;;;;;;;;2.00;1.00;;;;;;;;5019391;28;45266;-86
2023/04/23 11:27:15;;;;;;;;;1.50;0.00;;;;;;;;5020092;28;45292;-84
2023/04/23 11:29:44;;;;;;;;;2.00;0.25;;;;;;;;5019240;28;47073;-86
2023/04/23 11:32:29;;;;;;;;;1.00;1.00;;;;;;;;5018263;28;45607;-87
2023/04/23 11:34:56;;;;;;;;;1.00;1.00;;;;;;;;5017122;28;45486;-81
2023/04/23 11:37:21;;;;;;;;;0.75;0.50;;;;;;;;5015771;28;45784;-83
2023/04/23 11:39:48;;;;;;;;;1.00;0.00;;;;;;;;5018864;28;47295;-81
2023/04/23 11:42:14;;;;;;;;;0.00;0.00;;;;;;;;5016342;28;45721;-81
2023/04/23 11:44:40;;;;;;;;;2.00;2.00;;;;;;;;5033005;28;45359;-81
2023/04/23 11:47:11;;;;;;;;;0.50;0.50;;;;;;;;5038164;28;45300;-85
2023/04/23 11:49:42;;;;;;;;;1.50;1.50;;;;;;;;5037504;28;46591;-82
2023/04/23 11:52:08;;;;;;;;;1.00;1.00;;;;;;;;5037840;28;45366;-82
2023/04/23 11:54:34;;;;;;;;;2.00;1.00;;;;;;;;5037922;28;45372;-82
2023/04/23 11:57:00;;;;;;;;;1.00;1.00;;;;;;;;5033320;28;45462;-81
2023/04/23 11:59:26;;;;;;;;;1.00;1.00;;;;;;;;5017937;28;46133;-81
2023/04/23 12:01:55;;;;;;;;;1.75;1.50;;;;;;;;5017594;28;45234;-80
2023/04/23 12:04:21;;;;;;;;;1.00;0.00;;;;;;;;5017587;28;45304;-79
2023/04/23 12:06:48;;;;;;;;;1.00;1.00;;;;;;;;5017426;28;45339;-80
2023/04/23 12:09:14;;;;;;;;;1.00;1.00;;;;;;;;5017220;28;45404;-80
2023/04/23 12:11:40;;;;;;;;;2.00;0.00;;;;;;;;5017384;28;45446;-79
2023/04/23 12:14:07;;;;;;;;;1.00;0.00;;;;;;;;5019486;28;45794;-79
2023/04/23 12:16:33;;;;;;;;;1.00;1.00;;;;;;;;5018403;28;45533;-79
2023/04/23 12:18:59;;;;;;;;;0.00;0.00;;;;;;;;5021566;28;45399;-85
2023/04/23 12:21:27;;;;;;;;;2.00;0.00;;;;;;;;5024277;28;45821;-81
2023/04/23 12:23:52;;;;;;;;;1.75;0.00;;;;;;;;5017506;28;45356;-82
2023/04/23 12:26:20;;;;;;;;;0.00;0.00;;;;;;;;5016119;28;45359;-82
2023/04/23 12:28:56;;;;;;;;;0.00;0.00;;;;;;;;5019197;28;46198;-83
2023/04/23 12:31:23;;;;;;;;;0.00;0.00;;;;;;;;5009075;28;45399;-82
2023/04/23 12:34:04;;;;;;;;;0.00;0.00;;;;;;;;5006444;28;45494;-82
2023/04/23 12:36:30;;;;;;;;;0.00;0.00;;;;;;;;5021802;28;45713;-83
2023/04/23 12:39:14;;;;;;;;;0.00;0.00;;;;;;;;5025872;28;46985;-83
2023/04/23 12:41:39;;;;;;;;;0.25;0.00;;;;;;;;5030695;28;45703;-80
2023/04/23 12:44:05;;;;;;;;;0.00;0.00;;;;;;;;5017519;28;45319;-79
2023/04/23 12:46:30;;;;;;;;;0.00;0.00;;;;;;;;5018718;28;45338;-79
2023/04/23 12:48:55;;;;;;;;;0.00;0.00;;;;;;;;5035247;28;45565;-79
2023/04/23 12:51:20;;;;;;;;;0.00;0.00;;;;;;;;5011062;28;45332;-80
2023/04/23 12:53:45;;;;;;;;;0.00;0.00;;;;;;;;5008684;28;45485;-79
2023/04/23 12:56:10;;;;;;;;;0.00;0.00;;;;;;;;5006158;28;47047;-80
2023/04/23 12:58:36;;;;;;;;;0.00;0.00;;;;;;;;4998043;28;45392;-80
2023/04/23 13:01:01;;;;;;;;;0.00;0.00;;;;;;;;5003852;28;45443;-80
2023/04/23 13:03:26;;;;;;;;;0.00;0.00;;;;;;;;4997289;28;45372;-80
2023/04/23 13:05:51;;;;;;;;;0.00;0.00;;;;;;;;5006326;28;45393;-79
2023/04/23 13:08:16;;;;;;;;;0.00;0.00;;;;;;;;5016859;28;45545;-80
2023/04/23 13:10:43;;;;;;;;;1.00;0.00;;;;;;;;5014462;28;45890;-79
2023/04/23 13:13:08;;;;;;;;;0.00;0.00;;;;;;;;5013510;28;45524;-80
2023/04/23 13:15:34;;;;;;;;;0.00;0.00;;;;;;;;5015368;28;45493;-80
2023/04/23 13:17:59;;;;;;;;;0.00;0.00;;;;;;;;5016832;28;45540;-80
2023/04/23 13:20:25;;;;;;;;;0.00;0.00;;;;;;;;5014565;28;45725;-79
2023/04/23 13:22:50;;;;;;;;;0.00;0.00;;;;;;;;5017068;28;45383;-79
2023/04/23 13:25:15;;;;;;;;;0.00;0.00;;;;;;;;5001804;28;45514;-79
2023/04/23 13:27:40;;;;;;;;;1.00;0.00;;;;;;;;4996844;28;46443;-83
2023/04/23 13:30:06;;;;;;;;;0.67;0.00;;;;;;;;5011996;28;45649;-82
2023/04/23 13:32:31;;;;;;;;;0.00;0.00;;;;;;;;4998111;28;45855;-80
2023/04/23 13:34:59;;;;;;;;;0.00;0.00;;;;;;;;5012781;28;45422;-85
2023/04/23 13:37:26;;;;;;;;;0.00;0.00;;;;;;;;5016720;28;46274;-81
2023/04/23 13:39:51;;;;;;;;;0.00;0.00;;;;;;;;5015564;28;45332;-84
2023/04/23 13:42:16;;;;;;;;;0.00;0.00;;;;;;;;5016782;28;45272;-84
2023/04/23 13:44:41;;;;;;;;;0.00;0.00;;;;;;;;5008832;28;45582;-88
2023/04/23 13:47:07;;;;;;;;;0.00;0.00;;;;;;;;4996488;28;46344;-86
2023/04/23 13:49:32;;;;;;;;;0.00;0.00;;;;;;;;4996687;28;45298;-85
2023/04/23 13:51:59;;;;;;;;;0.00;0.00;;;;;;;;5003309;28;45206;-88
2023/04/23 13:54:28;;;;;;;;;0.00;0.00;;;;;;;;5009289;28;45463;-82
2023/04/23 13:56:54;;;;;;;;;0.00;0.00;;;;;;;;4996472;28;45629;-83
2023/04/23 13:59:19;;;;;;;;;0.00;0.00;;;;;;;;4996150;28;45553;-84
2023/04/23 14:01:48;;;;;;;;;0.00;0.00;;;;;;;;4996558;28;45541;-82
2023/04/23 14:04:13;;;;;;;;;0.00;0.00;;;;;;;;5005158;28;45423;-87
2023/04/23 14:06:38;;;;;;;;;0.00;0.00;;;;;;;;4999180;28;46616;-86
2023/04/23 14:09:04;;;;;;;;;0.00;0.00;;;;;;;;4995219;28;45622;-83
2023/04/23 14:11:29;;;;;;;;;0.00;0.00;;;;;;;;5010273;28;45269;-84
2023/04/23 14:13:55;;;;;;;;;0.00;0.00;;;;;;;;5006554;28;45265;-83
2023/04/23 14:16:20;;;;;;;;;0.00;0.00;;;;;;;;4995955;28;46203;-84
2023/04/23 14:18:45;;;;;;;;;0.00;0.00;;;;;;;;4997579;28;45377;-82
2023/04/23 14:21:10;;;;;;;;;0.00;0.00;;;;;;;;4994950;28;45399;-83
2023/04/23 14:23:43;;;;;;;;;0.33;0.00;;;;;;;;5002173;28;45411;-83
2023/04/23 14:26:09;;;;;;;;;0.00;0.00;;;;;;;;5015748;28;45441;-82
2023/04/23 14:28:34;;;;;;;;;0.00;0.00;;;;;;;;5013270;28;45496;-83
2023/04/23 14:31:00;;;;;;;;;0.00;0.00;;;;;;;;4995851;28;45524;-79
2023/04/23 14:33:25;;;;;;;;;0.00;0.00;;;;;;;;4996121;28;45433;-82
2023/04/23 14:35:50;;;;;;;;;0.00;0.00;;;;;;;;4998896;28;46227;-83
2023/04/23 14:38:17;;;;;;;;;0.00;0.00;;;;;;;;5010964;28;45316;-82
2023/04/23 14:40:42;;;;;;;;;0.25;0.00;;;;;;;;4996110;28;45607;-82
2023/04/23 14:43:07;;;;;;;;;0.00;0.00;;;;;;;;4996052;28;45459;-82